createdAt,value
2019-03-23T00:02:00.273Z,10.49
2019-03-23T00:04:26.327Z,10.81
2019-03-23T00:06:52.557Z,10.37
2019-03-23T00:09:18.684Z,10.85
2019-03-23T00:11:44.764Z,10.40
2019-03-23T00:14:10.718Z,10.50
2019-03-23T00:16:36.740Z,10.62
2019-03-23T00:19:02.934Z,10.41
2019-03-23T00:21:28.823Z,10.01
2019-03-23T00:23:55.289Z,9.87
2019-03-23T00:26:21.363Z,10.64
2019-03-23T00:28:47.385Z,10.60
2019-03-23T00:31:14.270Z,10.35
2019-03-23T00:33:40.395Z,10.11
2019-03-23T00:36:06.512Z,10.12
2019-03-23T00:38:32.634Z,10.41
2019-03-23T00:40:58.731Z,10.12
2019-03-23T00:43:24.515Z,10.25
2019-03-23T00:45:50.584Z,10.25
2019-03-23T00:48:16.750Z,10.11
2019-03-23T00:50:42.548Z,9.95
2019-03-23T00:53:08.609Z,10.05
2019-03-23T00:55:34.742Z,10.12
2019-03-23T00:58:00.712Z,10.01
2019-03-23T01:00:27.104Z,10.02
2019-03-23T01:02:53.671Z,9.90
2019-03-23T01:05:19.829Z,9.95
2019-03-23T01:07:46.058Z,9.97
2019-03-23T01:10:12.615Z,10.01
2019-03-23T01:12:38.903Z,10.08
2019-03-23T01:15:07.520Z,10.08
2019-03-23T01:17:33.620Z,10.13
2019-03-23T01:19:59.548Z,10.05
2019-03-23T01:22:25.468Z,10.10
2019-03-23T01:24:51.367Z,10.16
2019-03-23T01:27:17.286Z,10.08
2019-03-23T01:29:43.211Z,10.27
2019-03-23T01:32:09.658Z,10.14
2019-03-23T01:34:35.719Z,9.93
2019-03-23T01:37:03.071Z,10.02
2019-03-23T01:39:29.220Z,10.06
2019-03-23T01:41:55.365Z,9.99
2019-03-23T01:44:21.493Z,9.89
2019-03-23T01:46:47.851Z,9.96
2019-03-23T01:49:13.681Z,9.81
2019-03-23T01:51:39.689Z,9.93
2019-03-23T01:54:06.012Z,9.97
2019-03-23T01:56:31.868Z,9.99
2019-03-23T01:58:57.874Z,9.82
2019-03-23T02:01:24.417Z,9.93
2019-03-23T02:03:50.295Z,9.92
2019-03-23T02:06:16.350Z,9.83
2019-03-23T02:08:42.470Z,9.66
2019-03-23T02:11:08.351Z,9.64
2019-03-23T02:13:34.456Z,9.61
2019-03-23T02:16:00.528Z,9.59
2019-03-23T02:18:26.754Z,9.54
2019-03-23T02:20:52.676Z,9.59
2019-03-23T02:23:18.728Z,9.63
2019-03-23T02:25:45.136Z,9.61
2019-03-23T02:28:11.252Z,9.67
2019-03-23T02:30:37.309Z,9.62
2019-03-23T02:33:03.176Z,9.64
2019-03-23T02:35:29.228Z,9.60
2019-03-23T02:37:55.055Z,9.54
2019-03-23T02:40:21.267Z,9.57
2019-03-23T02:42:47.300Z,9.48
2019-03-23T02:45:13.855Z,9.41
2019-03-23T02:47:39.851Z,9.43
2019-03-23T02:50:07.949Z,9.33
2019-03-23T02:52:34.239Z,9.20
2019-03-23T02:55:00.524Z,9.21
2019-03-23T02:57:26.705Z,9.21
2019-03-23T02:59:52.848Z,9.15
2019-03-23T03:02:19.112Z,9.02
2019-03-23T03:04:45.633Z,8.97
2019-03-23T03:07:11.828Z,9.11
2019-03-23T03:09:38.088Z,9.14
2019-03-23T03:12:04.432Z,9.03
2019-03-23T03:14:30.316Z,9.10
2019-03-23T03:16:56.369Z,8.81
2019-03-23T03:19:22.457Z,9.11
2019-03-23T03:21:48.462Z,9.16
2019-03-23T03:24:14.603Z,8.98
2019-03-23T03:26:40.413Z,8.92
2019-03-23T03:29:06.458Z,9.13
2019-03-23T03:31:32.359Z,8.98
2019-03-23T03:33:58.445Z,9.09
2019-03-23T03:36:24.534Z,8.80
2019-03-23T03:38:50.482Z,8.30
2019-03-23T03:41:16.624Z,8.72
2019-03-23T03:43:42.672Z,8.85
2019-03-23T03:46:08.613Z,8.76
2019-03-23T03:48:34.738Z,8.74
2019-03-23T03:51:00.814Z,8.89
2019-03-23T03:53:26.982Z,8.84
2019-03-23T03:55:53.027Z,8.78
2019-03-23T03:58:18.833Z,8.19
2019-03-23T04:00:44.993Z,8.57
2019-03-23T04:03:11.153Z,8.57
2019-03-23T04:05:37.017Z,8.52
2019-03-23T04:08:10.866Z,8.82
2019-03-23T04:10:31.154Z,8.81
2019-03-23T04:12:57.757Z,8.15
2019-03-23T04:15:23.831Z,8.84
2019-03-23T04:17:49.898Z,8.86
2019-03-23T04:20:15.724Z,8.47
2019-03-23T04:22:41.775Z,8.54
2019-03-23T04:25:09.032Z,8.40
2019-03-23T04:27:35.098Z,8.33
2019-03-23T04:30:04.291Z,8.49
2019-03-23T04:32:30.339Z,8.32
2019-03-23T04:34:56.402Z,8.35
2019-03-23T04:37:22.627Z,8.28
2019-03-23T04:39:48.684Z,8.45
2019-03-23T04:42:14.619Z,7.49
2019-03-23T04:44:40.694Z,7.89
2019-03-23T04:47:06.778Z,8.21
2019-03-23T04:49:32.637Z,8.18
2019-03-23T04:51:58.464Z,8.48
2019-03-23T04:54:24.790Z,8.29
2019-03-23T04:56:50.624Z,8.16
2019-03-23T04:59:16.712Z,8.44
2019-03-23T05:01:42.654Z,7.44
2019-03-23T05:04:08.820Z,8.18
2019-03-23T05:06:34.902Z,7.13
2019-03-23T05:09:01.052Z,7.69
2019-03-23T05:11:27.156Z,8.34
2019-03-23T05:13:53.247Z,8.13
2019-03-23T05:16:19.168Z,8.14
2019-03-23T05:18:45.269Z,7.87
2019-03-23T05:21:11.596Z,6.99
2019-03-23T05:23:38.406Z,7.08
2019-03-23T05:26:04.575Z,8.17
2019-03-23T05:28:31.002Z,7.91
2019-03-23T05:30:57.444Z,7.83
2019-03-23T05:33:23.664Z,8.14
2019-03-23T05:35:49.754Z,7.75
2019-03-23T05:38:15.984Z,7.97
2019-03-23T05:40:41.815Z,8.03
2019-03-23T05:43:07.707Z,8.02
2019-03-23T05:45:33.769Z,8.34
2019-03-23T05:47:59.864Z,8.26
2019-03-23T05:50:25.707Z,7.98
2019-03-23T05:52:51.890Z,7.91
2019-03-23T05:55:17.860Z,7.87
2019-03-23T05:57:43.754Z,8.03
2019-03-23T06:00:11.834Z,8.00
2019-03-23T06:02:37.982Z,7.86
2019-03-23T06:05:05.403Z,8.00
2019-03-23T06:07:31.512Z,8.16
2019-03-23T06:09:57.656Z,8.08
2019-03-23T06:12:24.011Z,8.09
2019-03-23T06:14:50.119Z,8.10
2019-03-23T06:17:16.256Z,8.19
2019-03-23T06:19:42.306Z,8.31
2019-03-23T06:22:08.190Z,8.31
2019-03-23T06:24:34.518Z,8.13
2019-03-23T06:27:00.582Z,8.36
2019-03-23T06:29:26.761Z,8.39
2019-03-23T06:31:52.884Z,8.50
2019-03-23T06:34:19.256Z,8.47
2019-03-23T06:36:45.456Z,8.56
2019-03-23T06:39:11.908Z,8.74
2019-03-23T06:41:37.985Z,8.80
2019-03-23T06:44:04.011Z,8.79
2019-03-23T06:46:30.152Z,8.90
2019-03-23T06:48:56.633Z,9.07
2019-03-23T06:51:22.748Z,9.02
2019-03-23T06:53:48.854Z,9.12
2019-03-23T06:56:15.294Z,8.40
2019-03-23T06:58:41.383Z,8.76
2019-03-23T07:01:07.472Z,8.10
2019-03-23T07:03:33.560Z,8.50
2019-03-23T07:06:00.009Z,9.12
2019-03-23T07:08:31.792Z,8.64
2019-03-23T07:10:54.209Z,8.48
2019-03-23T07:13:20.404Z,8.49
2019-03-23T07:15:46.540Z,8.40
2019-03-23T07:18:12.647Z,8.25
2019-03-23T07:20:38.803Z,8.30
2019-03-23T07:23:05.186Z,8.48
2019-03-23T07:25:31.295Z,8.59
2019-03-23T07:27:57.582Z,9.62
2019-03-23T07:30:24.015Z,9.41
2019-03-23T07:32:50.188Z,9.70
2019-03-23T07:35:16.995Z,9.27
2019-03-23T07:37:43.443Z,9.25
2019-03-23T07:40:10.892Z,9.04
2019-03-23T07:42:37.064Z,9.10
2019-03-23T07:45:05.956Z,9.07
2019-03-23T07:47:32.010Z,9.40
2019-03-23T07:49:58.076Z,10.05
2019-03-23T07:52:24.580Z,10.16
2019-03-23T07:54:50.730Z,10.13
2019-03-23T07:57:16.892Z,9.86
2019-03-23T07:59:43.285Z,10.09
2019-03-23T08:02:09.432Z,10.25
2019-03-23T08:04:35.602Z,10.45
2019-03-23T08:07:01.937Z,10.46
2019-03-23T08:09:37.366Z,10.47
2019-03-23T08:11:55.842Z,11.11
2019-03-23T08:14:21.858Z,11.23
2019-03-23T08:16:48.119Z,11.57
2019-03-23T08:19:14.232Z,11.76
2019-03-23T08:21:40.248Z,12.06
2019-03-23T08:24:06.414Z,12.72
2019-03-23T08:26:32.534Z,13.14
2019-03-23T08:28:59.033Z,13.75
2019-03-23T08:31:25.182Z,14.62
2019-03-23T08:33:52.181Z,15.33
2019-03-23T08:36:18.393Z,16.86
2019-03-23T08:38:44.563Z,17.54
2019-03-23T08:41:11.100Z,18.20
2019-03-23T08:43:37.235Z,17.77
2019-03-23T08:46:03.403Z,19.75
2019-03-23T08:48:29.527Z,21.63
2019-03-23T08:50:55.655Z,22.02
2019-03-23T08:53:22.112Z,22.66
2019-03-23T08:55:48.455Z,23.33
2019-03-23T08:58:14.636Z,23.12
2019-03-23T09:00:40.759Z,23.97
2019-03-23T09:03:06.878Z,25.13
2019-03-23T09:05:33.387Z,24.50
2019-03-23T09:07:59.488Z,24.94
2019-03-23T09:10:25.655Z,25.32
2019-03-23T09:12:51.865Z,25.23
2019-03-23T09:15:17.724Z,25.00
2019-03-23T09:17:43.947Z,25.40
2019-03-23T09:20:10.656Z,25.62
2019-03-23T09:22:36.931Z,25.93
2019-03-23T09:25:04.520Z,25.16
2019-03-23T09:27:30.573Z,25.32
2019-03-23T09:29:56.684Z,23.98
2019-03-23T09:32:22.493Z,24.11
2019-03-23T09:34:49.118Z,24.38
2019-03-23T09:37:15.252Z,23.32
2019-03-23T09:39:41.399Z,24.69
2019-03-23T09:42:09.608Z,25.23
2019-03-23T09:44:36.210Z,24.28
2019-03-23T09:47:05.449Z,23.14
2019-03-23T09:49:31.610Z,24.21
2019-03-23T09:51:58.152Z,23.66
2019-03-23T09:54:26.896Z,23.46
2019-03-23T09:56:52.700Z,24.08
2019-03-23T09:59:18.807Z,26.05
2019-03-23T10:01:44.915Z,25.91
2019-03-23T10:04:11.239Z,26.19
2019-03-23T10:06:37.120Z,25.94
2019-03-23T10:09:06.582Z,25.00
2019-03-23T10:11:32.746Z,23.79
2019-03-23T10:13:59.240Z,24.16
2019-03-23T10:16:25.392Z,24.46
2019-03-23T10:18:51.457Z,23.86
2019-03-23T10:21:17.510Z,23.28
2019-03-23T10:23:43.951Z,25.19
2019-03-23T10:26:10.118Z,25.41
2019-03-23T10:28:36.246Z,25.16
2019-03-23T10:31:02.214Z,25.86
2019-03-23T10:33:28.507Z,25.62
2019-03-23T10:35:54.679Z,25.41
2019-03-23T10:38:20.802Z,24.56
2019-03-23T10:40:48.242Z,24.93
2019-03-23T10:43:14.368Z,27.10
2019-03-23T10:45:44.455Z,27.38
2019-03-23T10:48:08.715Z,27.02
2019-03-23T10:50:35.176Z,22.29
2019-03-23T10:53:01.048Z,20.35
2019-03-23T10:55:27.135Z,20.47
2019-03-23T10:57:52.966Z,19.97
2019-03-23T11:00:19.113Z,19.85
2019-03-23T11:02:45.637Z,19.38
2019-03-23T11:05:12.192Z,19.60
2019-03-23T11:07:38.803Z,19.25
2019-03-23T11:10:07.628Z,19.30
2019-03-23T11:12:34.017Z,18.83
2019-03-23T11:15:00.305Z,19.04
2019-03-23T11:17:26.767Z,18.88
2019-03-23T11:19:52.690Z,19.47
2019-03-23T11:22:18.879Z,19.27
2019-03-23T11:24:44.767Z,19.07
2019-03-23T11:27:10.976Z,19.13
2019-03-23T11:29:36.864Z,19.64
2019-03-23T11:32:02.988Z,19.36
2019-03-23T11:34:29.202Z,19.57
2019-03-23T11:36:55.696Z,19.18
2019-03-23T11:39:21.944Z,19.26
2019-03-23T11:41:47.994Z,19.46
2019-03-23T11:44:14.155Z,20.13
2019-03-23T11:46:40.129Z,20.02
2019-03-23T11:49:06.211Z,19.55
2019-03-23T11:51:32.186Z,19.45
2019-03-23T11:53:58.387Z,19.60
2019-03-23T11:56:24.675Z,19.55
2019-03-23T11:58:50.983Z,19.34
2019-03-23T12:01:17.618Z,19.85
2019-03-23T12:03:45.681Z,19.67
2019-03-23T12:06:11.956Z,19.83
2019-03-23T12:08:37.689Z,19.65
2019-03-23T12:11:03.995Z,19.49
2019-03-23T12:13:30.454Z,19.34
2019-03-23T12:17:05.260Z,20.84
2019-03-23T12:19:33.977Z,24.33
2019-03-23T12:22:02.634Z,25.19
2019-03-23T12:24:31.277Z,26.50
2019-03-23T12:27:00.041Z,25.42
2019-03-23T12:29:28.797Z,24.63
2019-03-23T12:31:57.481Z,26.98
2019-03-23T12:34:26.200Z,28.56
2019-03-23T12:36:54.956Z,27.48
2019-03-23T12:39:23.412Z,26.22
2019-03-23T12:41:51.861Z,25.72
2019-03-23T12:44:20.456Z,25.24
2019-03-23T12:46:48.892Z,26.42
2019-03-23T12:49:17.389Z,25.74
2019-03-23T12:51:46.105Z,24.87
2019-03-23T12:54:14.835Z,26.20
2019-03-23T12:56:43.698Z,26.20
2019-03-23T12:59:12.396Z,25.19
2019-03-23T13:01:41.136Z,23.89
2019-03-23T13:04:09.551Z,23.97
2019-03-23T13:06:38.025Z,24.34
2019-03-23T13:09:07.682Z,24.27
2019-03-23T13:11:36.365Z,23.99
2019-03-23T13:14:05.078Z,23.35
2019-03-23T13:16:33.720Z,22.99
2019-03-23T13:19:02.579Z,23.12
2019-03-23T13:21:31.339Z,23.17
2019-03-23T13:24:00.206Z,23.01
2019-03-23T13:26:28.988Z,22.82
2019-03-23T13:28:57.659Z,22.63
2019-03-23T13:31:26.533Z,22.34
2019-03-23T13:33:55.380Z,22.37
2019-03-23T13:36:24.094Z,22.22
2019-03-23T13:38:52.939Z,22.13
2019-03-23T13:41:21.599Z,21.95
2019-03-23T13:43:50.377Z,21.86
2019-03-23T13:46:18.913Z,21.83
2019-03-23T13:48:47.553Z,21.72
2019-03-23T13:51:15.966Z,21.67
2019-03-23T13:53:44.743Z,21.64
2019-03-23T13:56:13.733Z,21.59
2019-03-23T13:58:42.219Z,21.46
2019-03-23T14:01:10.629Z,21.44
2019-03-23T14:03:39.395Z,21.30
2019-03-23T14:06:07.842Z,21.32
2019-03-23T14:08:36.292Z,21.06
2019-03-23T14:11:05.206Z,21.17
2019-03-23T14:13:34.014Z,21.16
2019-03-23T14:16:02.579Z,21.12
2019-03-23T14:18:31.016Z,21.09
2019-03-23T14:20:59.667Z,21.02
2019-03-23T14:23:28.226Z,20.98
2019-03-23T14:25:56.885Z,20.96
2019-03-23T14:28:25.322Z,20.89
2019-03-23T14:30:54.161Z,20.82
2019-03-23T14:33:23.595Z,20.72
2019-03-23T14:35:52.125Z,20.72
2019-03-23T14:38:20.526Z,20.68
2019-03-23T14:40:49.097Z,20.61
2019-03-23T14:43:17.544Z,20.57
2019-03-23T14:45:45.999Z,20.54
2019-03-23T14:48:14.661Z,20.46
2019-03-23T14:50:43.231Z,20.41
2019-03-23T14:53:11.800Z,20.40
2019-03-23T14:55:40.247Z,20.36
2019-03-23T14:58:08.998Z,20.34
2019-03-23T15:00:38.068Z,20.30
2019-03-23T15:03:06.956Z,20.27
2019-03-23T15:05:35.539Z,20.26
2019-03-23T15:08:04.020Z,20.22
2019-03-23T15:10:32.451Z,20.22
2019-03-23T15:13:01.156Z,20.14
2019-03-23T15:15:29.611Z,20.10
2019-03-23T15:17:58.086Z,20.02
2019-03-23T15:20:26.511Z,19.98
2019-03-23T15:22:54.936Z,19.91
2019-03-23T15:25:23.401Z,19.86
2019-03-23T15:27:51.804Z,19.84
2019-03-23T15:30:20.611Z,19.79
2019-03-23T15:32:49.137Z,19.76
2019-03-23T15:35:17.824Z,19.75
2019-03-23T15:37:46.277Z,19.68
2019-03-23T15:40:15.418Z,19.65
2019-03-23T15:42:44.093Z,19.61
2019-03-23T15:45:12.653Z,19.56
2019-03-23T15:47:41.386Z,19.47
2019-03-23T15:50:10.066Z,19.43
2019-03-23T15:52:38.875Z,19.32
2019-03-23T15:55:07.937Z,19.26
2019-03-23T15:57:36.949Z,19.17
2019-03-23T16:00:10.833Z,19.05
2019-03-23T16:02:39.246Z,18.95
2019-03-23T16:05:08.835Z,18.87
2019-03-23T16:07:37.508Z,18.72
2019-03-23T16:10:08.251Z,18.70
2019-03-23T16:12:37.787Z,18.63
2019-03-23T16:15:09.093Z,18.55
2019-03-23T16:17:37.531Z,18.46
2019-03-23T16:20:09.311Z,18.39
2019-03-23T16:22:37.758Z,18.35
2019-03-23T16:25:07.711Z,18.31
2019-03-23T16:27:36.172Z,18.20
2019-03-23T16:30:07.624Z,18.08
2019-03-23T16:32:36.763Z,18.04
2019-03-23T16:35:07.551Z,18.01
2019-03-23T16:37:36.046Z,17.89
2019-03-23T16:40:08.236Z,17.80
2019-03-23T16:42:44.691Z,17.76
2019-03-23T16:45:09.675Z,17.67
2019-03-23T16:47:38.823Z,17.60
2019-03-23T16:50:08.622Z,17.57
2019-03-23T16:52:38.555Z,17.49
2019-03-23T16:55:09.213Z,17.53
2019-03-23T16:57:37.686Z,17.41
2019-03-23T17:00:09.079Z,17.34
2019-03-23T17:02:37.788Z,17.33
2019-03-23T17:05:07.364Z,17.28
2019-03-23T17:07:35.985Z,17.32
2019-03-23T17:10:06.170Z,17.34
2019-03-23T17:12:35.034Z,17.36
2019-03-23T17:15:06.080Z,17.31
2019-03-23T17:17:34.702Z,17.22
2019-03-23T17:20:03.627Z,17.14
2019-03-23T17:22:32.211Z,17.10
2019-03-23T17:25:00.899Z,17.01
2019-03-23T17:27:29.610Z,16.93
2019-03-23T17:29:58.152Z,16.83
2019-03-23T17:32:26.887Z,16.80
2019-03-23T17:34:55.514Z,16.74
2019-03-23T17:37:24.225Z,16.65
2019-03-23T17:39:52.789Z,16.56
2019-03-23T17:42:21.573Z,16.47
2019-03-23T17:44:50.303Z,16.41
2019-03-23T17:47:18.929Z,16.42
2019-03-23T17:49:47.552Z,16.49
2019-03-23T17:52:16.157Z,16.50
2019-03-23T17:54:44.593Z,16.40
2019-03-23T17:57:13.036Z,16.32
2019-03-23T17:59:41.639Z,16.24
2019-03-23T18:02:10.599Z,16.17
2019-03-23T18:04:39.295Z,16.12
2019-03-23T18:07:07.961Z,16.06
2019-03-23T18:09:36.811Z,15.98
2019-03-23T18:12:05.445Z,15.91
2019-03-23T18:14:33.863Z,15.89
2019-03-23T18:17:02.627Z,15.80
2019-03-23T18:19:31.373Z,15.75
2019-03-23T18:22:00.185Z,15.75
2019-03-23T18:24:28.636Z,15.67
2019-03-23T18:26:57.223Z,15.65
2019-03-23T18:29:25.958Z,15.65
2019-03-23T18:31:54.398Z,15.58
2019-03-23T18:34:22.984Z,15.58
2019-03-23T18:36:52.202Z,15.47
2019-03-23T18:39:20.841Z,15.44
2019-03-23T18:41:49.605Z,15.39
2019-03-23T18:44:18.039Z,15.40
2019-03-23T18:46:46.718Z,15.26
2019-03-23T18:49:15.553Z,15.27
2019-03-23T18:51:44.375Z,15.22
2019-03-23T18:54:12.824Z,15.18
2019-03-23T18:56:41.469Z,15.16
2019-03-23T18:59:10.294Z,15.14
2019-03-23T19:01:38.715Z,14.91
2019-03-23T19:04:07.218Z,15.00
2019-03-23T19:06:35.983Z,15.08
2019-03-23T19:09:07.279Z,14.98
2019-03-23T19:11:36.062Z,14.87
2019-03-23T19:14:04.683Z,14.88
2019-03-23T19:16:33.395Z,14.92
2019-03-23T19:19:01.821Z,14.86
2019-03-23T19:21:30.301Z,14.80
2019-03-23T19:24:17.509Z,14.76
2019-03-23T19:26:45.977Z,14.67
2019-03-23T19:29:14.667Z,14.71
2019-03-23T19:31:43.095Z,14.65
2019-03-23T19:34:11.910Z,14.56
2019-03-23T19:36:40.336Z,14.50
2019-03-23T19:39:09.337Z,14.43
2019-03-23T19:41:38.038Z,14.44
2019-03-23T19:44:06.511Z,14.41
2019-03-23T19:46:34.931Z,14.40
2019-03-23T19:49:03.418Z,14.39
2019-03-23T19:51:31.861Z,14.38
2019-03-23T19:54:00.389Z,14.43
2019-03-23T19:56:29.167Z,14.40
2019-03-23T19:58:57.592Z,14.33
2019-03-23T20:01:26.381Z,14.31
2019-03-23T20:03:55.551Z,14.24
2019-03-23T20:06:24.123Z,14.21
2019-03-23T20:08:52.952Z,14.18
2019-03-23T20:11:21.402Z,14.16
2019-03-23T20:13:58.442Z,14.08
2019-03-23T20:16:20.029Z,14.05
2019-03-23T20:18:48.465Z,14.02
2019-03-23T20:21:17.008Z,13.95
2019-03-23T20:23:45.504Z,13.99
2019-03-23T20:26:14.151Z,13.94
2019-03-23T20:28:42.597Z,14.00
2019-03-23T20:31:11.123Z,13.93
2019-03-23T20:33:39.579Z,14.02
2019-03-23T20:36:08.010Z,13.94
2019-03-23T20:38:36.541Z,13.91
2019-03-23T20:41:05.066Z,13.95
2019-03-23T20:43:33.655Z,13.92
2019-03-23T20:46:02.414Z,13.81
2019-03-23T20:48:30.895Z,13.80
2019-03-23T20:50:59.403Z,13.78
2019-03-23T20:53:28.405Z,13.74
2019-03-23T20:55:56.895Z,13.77
2019-03-23T20:58:25.570Z,13.75
2019-03-23T21:00:54.060Z,13.75
2019-03-23T21:03:22.505Z,13.70
2019-03-23T21:05:50.942Z,13.62
2019-03-23T21:08:19.383Z,13.69
2019-03-23T21:10:47.834Z,13.64
2019-03-23T21:13:16.306Z,13.53
2019-03-23T21:15:44.724Z,13.56
2019-03-23T21:18:13.205Z,13.54
2019-03-23T21:20:41.866Z,13.58
2019-03-23T21:23:10.413Z,13.61
2019-03-23T21:25:39.069Z,13.54
2019-03-23T21:28:07.573Z,13.55
2019-03-23T21:30:36.125Z,13.46
2019-03-23T21:33:04.726Z,13.56
2019-03-23T21:35:33.210Z,13.51
2019-03-23T21:38:01.853Z,13.45
2019-03-23T21:40:31.151Z,13.44
2019-03-23T21:42:59.822Z,13.46
2019-03-23T21:45:28.318Z,13.48
2019-03-23T21:47:56.736Z,13.51
2019-03-23T21:50:25.213Z,13.50
2019-03-23T21:52:53.625Z,13.41
2019-03-23T21:55:22.048Z,13.33
2019-03-23T21:57:50.582Z,13.23
2019-03-23T22:00:33.188Z,13.33
2019-03-23T22:03:02.033Z,13.32
2019-03-23T22:05:30.489Z,13.28
2019-03-23T22:07:59.160Z,13.24
2019-03-23T22:10:27.746Z,13.14
2019-03-23T22:12:56.386Z,13.21
2019-03-23T22:15:25.024Z,13.17
2019-03-23T22:17:53.747Z,13.26
2019-03-23T22:20:22.438Z,13.31
2019-03-23T22:22:50.986Z,13.17
2019-03-23T22:25:19.606Z,13.15
2019-03-23T22:27:48.081Z,13.13
2019-03-23T22:30:17.467Z,13.11
2019-03-23T22:32:46.012Z,13.15
2019-03-23T22:35:14.674Z,13.10
2019-03-23T22:37:43.387Z,13.06
2019-03-23T22:40:13.554Z,13.05
2019-03-23T22:42:42.163Z,13.02
2019-03-23T22:45:11.599Z,13.05
2019-03-23T22:47:40.532Z,13.06
2019-03-23T22:50:09.865Z,13.06
2019-03-23T22:52:38.531Z,13.07
2019-03-23T22:55:07.894Z,13.04
2019-03-23T22:57:36.493Z,13.04
2019-03-23T23:00:16.149Z,13.04
2019-03-23T23:02:44.970Z,12.99
2019-03-23T23:05:13.610Z,12.98
2019-03-23T23:07:42.431Z,12.96
2019-03-23T23:10:11.456Z,12.92
2019-03-23T23:12:39.905Z,12.89
2019-03-23T23:15:08.604Z,12.92
2019-03-23T23:17:37.047Z,12.94
2019-03-23T23:20:07.679Z,12.87
2019-03-23T23:22:36.091Z,12.87
2019-03-23T23:25:07.354Z,12.84
2019-03-23T23:27:36.375Z,12.79
2019-03-23T23:30:07.521Z,12.81
2019-03-23T23:32:36.056Z,12.82
2019-03-23T23:35:09.010Z,12.82
2019-03-23T23:37:37.610Z,12.83
2019-03-23T23:40:08.146Z,12.81
2019-03-23T23:42:36.991Z,12.71
2019-03-23T23:45:15.397Z,12.67
2019-03-23T23:47:37.820Z,12.69
2019-03-23T23:50:08.171Z,12.66
2019-03-23T23:52:36.961Z,12.69
2019-03-23T23:55:07.261Z,12.71
2019-03-23T23:57:36.055Z,12.64
